createdAt,value
2018-03-16T00:02:07.459Z,61.85
2018-03-16T00:04:36.561Z,61.53
2018-03-16T00:07:06.035Z,67.05
2018-03-16T00:09:35.101Z,66.18
2018-03-16T00:12:04.178Z,64.60
2018-03-16T00:14:33.258Z,62.55
2018-03-16T00:17:02.452Z,59.78
2018-03-16T00:19:31.521Z,61.40
2018-03-16T00:22:00.655Z,57.13
2018-03-16T00:24:29.722Z,70.30
2018-03-16T00:26:58.798Z,57.80
2018-03-16T00:29:28.213Z,58.85
2018-03-16T00:31:58.045Z,52.88
2018-03-16T00:34:27.117Z,55.42
2018-03-16T00:36:56.190Z,55.58
2018-03-16T00:39:25.317Z,59.63
2018-03-16T00:41:54.382Z,61.25
2018-03-16T00:44:23.454Z,64.62
2018-03-16T00:46:52.517Z,64.82
2018-03-16T00:49:21.645Z,63.97
2018-03-16T00:51:50.710Z,58.85
2018-03-16T00:54:19.826Z,53.83
2018-03-16T00:56:49.662Z,56.55
2018-03-16T00:59:18.726Z,57.67
2018-03-16T01:01:47.851Z,60.80
2018-03-16T01:04:16.926Z,63.53
2018-03-16T01:06:46.226Z,58.33
2018-03-16T01:09:15.289Z,58.97
2018-03-16T01:11:44.357Z,54.75
2018-03-16T01:14:13.454Z,55.35
2018-03-16T01:16:42.534Z,60.47
2018-03-16T01:19:12.425Z,52.62
2018-03-16T01:21:41.492Z,47.70
2018-03-16T01:24:10.562Z,51.47
2018-03-16T01:26:39.633Z,48.58
2018-03-16T01:29:08.742Z,50.85
2018-03-16T01:31:37.806Z,52.38
2018-03-16T01:34:07.646Z,47.13
2018-03-16T01:36:36.717Z,48.00
2018-03-16T01:39:05.791Z,49.55
2018-03-16T01:41:34.903Z,46.00
2018-03-16T01:44:03.970Z,44.38
2018-03-16T01:46:33.801Z,50.28
2018-03-16T01:49:03.638Z,49.10
2018-03-16T01:51:33.569Z,48.53
2018-03-16T01:54:03.445Z,47.58
2018-03-16T01:56:32.549Z,40.28
2018-03-16T01:59:01.638Z,40.83
2018-03-16T02:01:30.714Z,45.28
2018-03-16T02:04:00.573Z,43.45
2018-03-16T02:06:29.801Z,35.15
2018-03-16T02:08:58.869Z,35.85
2018-03-16T02:11:28.730Z,36.05
2018-03-16T02:13:57.842Z,41.03
2018-03-16T02:16:26.973Z,34.70
2018-03-16T02:18:56.069Z,32.35
2018-03-16T02:21:25.270Z,31.25
2018-03-16T02:23:54.338Z,30.75
2018-03-16T02:26:23.410Z,29.40
2018-03-16T02:28:52.509Z,31.00
2018-03-16T02:31:21.604Z,31.70
2018-03-16T02:33:50.742Z,29.10
2018-03-16T02:36:19.931Z,26.42
2018-03-16T02:38:49.067Z,29.48
2018-03-16T02:41:18.138Z,23.20
2018-03-16T02:43:47.971Z,32.35
2018-03-16T02:46:17.038Z,31.75
2018-03-16T02:48:46.874Z,28.65
2018-03-16T02:51:15.956Z,25.88
2018-03-16T02:53:45.034Z,27.02
2018-03-16T02:56:14.161Z,26.70
2018-03-16T02:58:43.363Z,25.15
2018-03-16T03:01:12.434Z,28.58
2018-03-16T03:03:42.278Z,29.02
2018-03-16T03:06:12.109Z,30.65
2018-03-16T03:08:41.938Z,26.02
2018-03-16T03:11:11.010Z,24.52
2018-03-16T03:13:40.109Z,24.85
2018-03-16T03:16:09.246Z,30.08
2018-03-16T03:18:38.317Z,27.37
2018-03-16T03:21:07.426Z,25.55
2018-03-16T03:23:36.493Z,29.42
2018-03-16T03:26:06.326Z,29.12
2018-03-16T03:28:36.181Z,27.73
2018-03-16T03:31:05.251Z,29.17
2018-03-16T03:33:35.119Z,29.25
2018-03-16T03:36:04.217Z,26.60
2018-03-16T03:38:33.290Z,27.52
2018-03-16T03:41:02.552Z,24.27
2018-03-16T03:43:31.625Z,22.92
2018-03-16T03:46:01.493Z,27.50
2018-03-16T03:48:30.566Z,33.05
2018-03-16T03:51:00.558Z,27.58
2018-03-16T03:53:29.630Z,33.75
2018-03-16T03:55:58.704Z,29.95
2018-03-16T03:58:27.985Z,30.40
2018-03-16T04:00:57.049Z,31.67
2018-03-16T04:03:26.122Z,33.50
2018-03-16T04:05:55.237Z,30.80
2018-03-16T04:08:24.295Z,24.45
2018-03-16T04:10:53.373Z,32.30
2018-03-16T04:13:23.269Z,33.65
2018-03-16T04:15:52.397Z,30.80
2018-03-16T04:18:22.985Z,31.35
2018-03-16T04:20:52.342Z,27.87
2018-03-16T04:23:21.621Z,29.05
2018-03-16T04:25:50.688Z,30.30
2018-03-16T04:28:19.786Z,30.35
2018-03-16T04:30:48.854Z,28.17
2018-03-16T04:33:17.953Z,26.73
2018-03-16T04:35:47.024Z,28.52
2018-03-16T04:38:16.158Z,27.55
2018-03-16T04:40:45.994Z,31.50
2018-03-16T04:43:15.110Z,32.88
2018-03-16T04:45:44.178Z,28.83
2018-03-16T04:48:13.252Z,35.05
2018-03-16T04:50:42.330Z,28.08
2018-03-16T04:53:11.397Z,26.10
2018-03-16T04:55:40.461Z,26.92
2018-03-16T04:58:09.525Z,28.58
2018-03-16T05:00:38.593Z,30.12
2018-03-16T05:03:07.662Z,35.38
2018-03-16T05:05:37.573Z,30.02
2018-03-16T05:08:06.645Z,31.00
2018-03-16T05:10:35.717Z,29.85
2018-03-16T05:13:05.549Z,27.90
2018-03-16T05:15:35.381Z,29.00
2018-03-16T05:18:04.453Z,28.27
2018-03-16T05:20:33.522Z,25.00
2018-03-16T05:23:02.593Z,30.23
2018-03-16T05:25:31.662Z,28.08
2018-03-16T05:28:00.739Z,27.75
2018-03-16T05:30:29.870Z,29.65
2018-03-16T05:32:58.936Z,30.23
2018-03-16T05:35:28.766Z,34.00
2018-03-16T05:37:58.681Z,26.95
2018-03-16T05:40:27.873Z,24.90
2018-03-16T05:42:56.993Z,28.20
2018-03-16T05:45:26.074Z,31.85
2018-03-16T05:47:55.165Z,26.95
2018-03-16T05:50:24.235Z,27.35
2018-03-16T05:52:53.379Z,26.25
2018-03-16T05:55:22.458Z,25.75
2018-03-16T05:57:51.534Z,28.40
2018-03-16T06:00:20.644Z,24.73
2018-03-16T06:02:49.714Z,28.10
2018-03-16T06:05:18.782Z,27.95
2018-03-16T06:07:47.865Z,25.70
2018-03-16T06:10:16.940Z,27.58
2018-03-16T06:12:46.998Z,27.30
2018-03-16T06:15:16.131Z,21.87
2018-03-16T06:17:45.198Z,23.73
2018-03-16T06:20:14.306Z,24.15
2018-03-16T06:22:43.377Z,23.08
2018-03-16T06:25:12.454Z,24.60
2018-03-16T06:27:41.602Z,25.25
2018-03-16T06:30:10.682Z,22.05
2018-03-16T06:32:39.759Z,22.75
2018-03-16T06:35:08.830Z,22.37
2018-03-16T06:37:37.910Z,27.95
2018-03-16T06:40:07.098Z,27.48
2018-03-16T06:42:36.218Z,22.02
2018-03-16T06:45:05.380Z,25.12
2018-03-16T06:47:34.382Z,19.73
2018-03-16T06:50:03.649Z,18.25
2018-03-16T06:52:32.769Z,18.42
2018-03-16T06:55:01.914Z,22.85
2018-03-16T06:57:31.105Z,19.00
2018-03-16T07:00:00.204Z,19.48
2018-03-16T07:02:29.316Z,21.70
2018-03-16T07:04:58.387Z,19.62
2018-03-16T07:07:28.345Z,21.17
2018-03-16T07:09:57.418Z,18.87
2018-03-16T07:12:27.258Z,17.85
2018-03-16T07:14:57.090Z,16.40
2018-03-16T07:17:26.921Z,16.77
2018-03-16T07:19:55.996Z,17.90
2018-03-16T07:22:25.069Z,20.65
2018-03-16T07:24:54.186Z,20.67
2018-03-16T07:27:23.258Z,15.55
2018-03-16T07:29:52.336Z,14.65
2018-03-16T07:32:21.409Z,14.48
2018-03-16T07:34:50.557Z,19.05
2018-03-16T07:37:19.626Z,17.55
2018-03-16T07:39:48.718Z,13.05
2018-03-16T07:42:17.822Z,15.07
2018-03-16T07:44:46.927Z,25.77
2018-03-16T07:47:16.002Z,18.70
2018-03-16T07:49:45.077Z,16.65
2018-03-16T07:52:14.211Z,17.27
2018-03-16T07:54:43.391Z,15.80
2018-03-16T07:57:12.462Z,18.35
2018-03-16T07:59:42.333Z,13.50
2018-03-16T08:02:11.429Z,17.17
2018-03-16T08:04:40.502Z,21.23
2018-03-16T08:07:10.354Z,19.30
2018-03-16T08:09:39.431Z,16.80
2018-03-16T08:12:08.533Z,16.77
2018-03-16T08:14:37.606Z,21.40
2018-03-16T08:17:06.710Z,18.62
2018-03-16T08:19:35.777Z,17.40
2018-03-16T08:22:05.622Z,18.52
2018-03-16T08:24:35.730Z,15.15
2018-03-16T08:27:04.797Z,19.48
2018-03-16T08:29:33.866Z,16.15
2018-03-16T08:32:03.701Z,14.13
2018-03-16T08:34:33.572Z,15.18
2018-03-16T08:37:02.649Z,15.07
2018-03-16T08:39:31.722Z,17.50
2018-03-16T08:42:00.846Z,20.90
2018-03-16T08:44:29.921Z,15.98
2018-03-16T08:46:59.213Z,17.80
2018-03-16T08:49:28.282Z,14.50
2018-03-16T08:52:06.125Z,15.95
2018-03-16T08:54:35.250Z,17.77
2018-03-16T08:57:05.186Z,18.50
2018-03-16T08:59:34.318Z,23.95
2018-03-16T09:02:03.390Z,14.98
2018-03-16T09:04:32.462Z,15.82
2018-03-16T09:07:02.309Z,16.48
2018-03-16T09:09:32.150Z,16.23
2018-03-16T09:12:01.222Z,19.77
2018-03-16T09:14:30.305Z,28.85
2018-03-16T09:16:59.406Z,18.75
2018-03-16T09:19:28.734Z,15.68
2018-03-16T09:21:57.807Z,15.45
2018-03-16T09:24:26.876Z,14.55
2018-03-16T09:26:55.945Z,16.12
2018-03-16T09:29:25.157Z,19.25
2018-03-16T09:31:54.230Z,16.23
2018-03-16T09:34:24.126Z,14.45
2018-03-16T09:36:53.234Z,15.18
2018-03-16T09:39:22.310Z,15.02
2018-03-16T09:41:51.390Z,14.82
2018-03-16T09:44:21.227Z,15.52
2018-03-16T09:46:50.327Z,13.52
2018-03-16T09:49:20.205Z,17.25
2018-03-16T09:51:51.970Z,16.50
2018-03-16T09:54:21.843Z,17.02
2018-03-16T09:56:50.916Z,15.10
2018-03-16T09:59:19.981Z,15.80
2018-03-16T10:01:49.818Z,14.40
2018-03-16T10:04:18.881Z,16.33
2018-03-16T10:06:47.974Z,17.42
2018-03-16T10:09:17.074Z,17.50
2018-03-16T10:11:46.151Z,18.00
2018-03-16T10:14:17.062Z,19.65
2018-03-16T10:16:46.214Z,18.45
2018-03-16T10:19:16.053Z,15.90
2018-03-16T10:21:45.166Z,18.10
2018-03-16T10:24:14.238Z,15.57
2018-03-16T10:26:43.382Z,12.30
2018-03-16T10:29:12.449Z,14.48
2018-03-16T10:31:41.518Z,12.23
2018-03-16T10:34:10.584Z,11.90
2018-03-16T10:36:40.422Z,18.12
2018-03-16T10:39:10.278Z,14.30
2018-03-16T10:41:39.385Z,13.62
2018-03-16T10:44:08.450Z,14.38
2018-03-16T10:46:37.718Z,14.50
2018-03-16T10:49:06.794Z,12.00
2018-03-16T10:51:36.625Z,14.15
2018-03-16T10:54:06.631Z,12.00
2018-03-16T10:56:35.701Z,12.55
2018-03-16T10:59:04.766Z,14.87
2018-03-16T11:01:39.545Z,10.60
2018-03-16T11:04:14.034Z,11.93
2018-03-16T11:06:53.523Z,14.80
2018-03-16T11:09:22.788Z,10.65
2018-03-16T11:11:51.818Z,13.95
2018-03-16T11:14:21.721Z,13.73
2018-03-16T11:16:50.785Z,10.88
2018-03-16T11:19:19.849Z,15.38
2018-03-16T11:21:49.762Z,15.20
2018-03-16T11:24:18.831Z,17.42
2018-03-16T11:26:47.902Z,16.05
2018-03-16T11:29:16.974Z,15.90
2018-03-16T11:31:46.078Z,14.35
2018-03-16T11:34:15.139Z,11.32
2018-03-16T11:36:44.209Z,17.27
2018-03-16T11:39:13.278Z,14.13
2018-03-16T11:41:43.118Z,19.27
2018-03-16T11:44:12.189Z,17.37
2018-03-16T11:46:42.023Z,15.05
2018-03-16T11:49:11.339Z,15.90
2018-03-16T11:51:40.486Z,16.62
2018-03-16T11:54:09.591Z,17.60
2018-03-16T11:56:38.657Z,19.37
2018-03-16T11:59:07.940Z,23.52
2018-03-16T12:01:37.046Z,18.92
2018-03-16T12:04:06.130Z,29.58
2018-03-16T12:06:35.958Z,15.90
2018-03-16T12:09:05.083Z,17.50
2018-03-16T12:11:34.215Z,18.60
2018-03-16T12:14:03.279Z,20.58
2018-03-16T12:16:33.119Z,21.98
2018-03-16T12:19:02.250Z,19.00
2018-03-16T12:21:31.318Z,21.95
2018-03-16T12:24:01.227Z,21.33
2018-03-16T12:26:31.066Z,18.02
2018-03-16T12:29:00.137Z,18.60
2018-03-16T12:31:29.201Z,19.10
2018-03-16T12:33:59.030Z,23.02
2018-03-16T12:36:28.866Z,23.52
2018-03-16T12:38:58.702Z,20.92
2018-03-16T12:41:27.830Z,19.52
2018-03-16T12:43:56.929Z,22.48
2018-03-16T12:46:26.047Z,19.58
2018-03-16T12:48:55.209Z,19.40
2018-03-16T12:51:24.300Z,18.33
2018-03-16T12:53:53.434Z,23.27
2018-03-16T12:56:22.506Z,19.58
2018-03-16T12:58:51.629Z,23.05
2018-03-16T13:01:20.661Z,21.75
2018-03-16T13:03:49.733Z,30.90
2018-03-16T13:06:18.806Z,19.60
2018-03-16T13:08:48.694Z,19.90
2018-03-16T13:11:17.832Z,20.40
2018-03-16T13:13:47.678Z,21.15
2018-03-16T13:16:16.794Z,17.62
2018-03-16T13:18:46.229Z,21.42
2018-03-16T13:21:15.354Z,15.88
2018-03-16T13:23:44.467Z,23.92
2018-03-16T13:26:13.538Z,19.90
2018-03-16T13:28:43.450Z,20.67
2018-03-16T13:31:13.541Z,17.42
2018-03-16T13:33:42.682Z,15.20
2018-03-16T13:36:11.781Z,18.60
2018-03-16T13:38:40.954Z,18.90
2018-03-16T13:41:10.026Z,20.08
2018-03-16T13:43:39.095Z,20.25
2018-03-16T13:46:08.221Z,18.70
2018-03-16T13:48:37.298Z,23.48
2018-03-16T13:51:06.441Z,19.30
2018-03-16T13:53:35.546Z,16.85
2018-03-16T13:56:04.679Z,23.95
2018-03-16T13:58:33.754Z,19.90
2018-03-16T14:01:02.823Z,18.12
2018-03-16T14:03:32.711Z,16.27
2018-03-16T14:06:01.808Z,16.90
2018-03-16T14:08:31.105Z,17.45
2018-03-16T14:11:00.190Z,19.10
2018-03-16T14:13:30.026Z,17.40
2018-03-16T14:15:59.145Z,15.70
2018-03-16T14:18:28.268Z,17.65
2018-03-16T14:20:57.424Z,19.90
2018-03-16T14:23:26.506Z,13.95
2018-03-16T14:25:55.702Z,16.20
2018-03-16T14:28:24.807Z,16.50
2018-03-16T14:30:53.954Z,15.93
2018-03-16T14:33:23.038Z,15.45
2018-03-16T14:35:52.121Z,18.00
2018-03-16T14:38:21.203Z,16.23
2018-03-16T14:40:51.104Z,15.32
2018-03-16T14:43:20.180Z,15.38
2018-03-16T14:45:49.295Z,18.00
2018-03-16T14:48:18.398Z,16.55
2018-03-16T14:50:47.518Z,15.50
2018-03-16T14:53:16.758Z,15.30
2018-03-16T14:55:45.834Z,20.58
2018-03-16T14:58:14.914Z,19.87
2018-03-16T15:00:45.221Z,19.15
2018-03-16T15:03:14.301Z,17.45
2018-03-16T15:05:43.435Z,16.08
2018-03-16T15:08:12.554Z,18.92
2018-03-16T15:10:41.634Z,18.00
2018-03-16T15:13:10.709Z,20.62
2018-03-16T15:15:40.582Z,26.92
2018-03-16T15:18:09.663Z,20.62
2018-03-16T15:20:38.934Z,18.48
2018-03-16T15:23:08.006Z,15.23
2018-03-16T15:25:37.087Z,14.73
2018-03-16T15:28:06.226Z,14.80
2018-03-16T15:30:35.295Z,15.73
2018-03-16T15:33:05.137Z,13.95
2018-03-16T15:35:34.978Z,22.90
2018-03-16T15:38:04.049Z,14.65
2018-03-16T15:40:33.134Z,28.77
2018-03-16T15:43:02.318Z,17.30
2018-03-16T15:45:31.446Z,26.12
2018-03-16T15:48:00.521Z,24.37
2018-03-16T15:50:29.598Z,20.45
2018-03-16T15:52:59.435Z,15.38
2018-03-16T15:55:28.570Z,20.02
2018-03-16T15:57:58.442Z,17.45
2018-03-16T16:00:27.522Z,14.73
2018-03-16T16:02:56.628Z,10.68
2018-03-16T16:05:25.702Z,7.68
2018-03-16T16:07:54.766Z,13.48
2018-03-16T16:10:23.838Z,9.25
2018-03-16T16:12:53.710Z,10.07
2018-03-16T16:15:22.786Z,10.57
2018-03-16T16:17:52.718Z,10.38
2018-03-16T16:20:22.578Z,10.30
2018-03-16T16:22:51.647Z,9.93
2018-03-16T16:25:21.610Z,8.43
2018-03-16T16:27:50.688Z,13.32
2018-03-16T16:30:20.518Z,7.18
2018-03-16T16:32:50.391Z,9.30
2018-03-16T16:35:19.464Z,10.43
2018-03-16T16:37:48.546Z,11.40
2018-03-16T16:40:17.618Z,12.80
2018-03-16T16:42:46.670Z,8.00
2018-03-16T16:45:15.814Z,10.02
2018-03-16T16:47:44.928Z,8.90
2018-03-16T16:50:14.730Z,14.80
2018-03-16T16:52:44.580Z,9.40
2018-03-16T16:55:13.731Z,13.35
2018-03-16T16:57:42.751Z,13.25
2018-03-16T17:00:11.826Z,10.02
2018-03-16T17:02:40.930Z,10.60
2018-03-16T17:05:10.067Z,16.55
2018-03-16T17:07:39.138Z,11.82
2018-03-16T17:10:08.211Z,15.50
2018-03-16T17:12:37.281Z,11.15
2018-03-16T17:15:06.426Z,9.00
2018-03-16T17:17:35.486Z,17.45
2018-03-16T17:20:04.558Z,11.10
2018-03-16T17:22:33.634Z,11.73
2018-03-16T17:25:02.704Z,9.10
2018-03-16T17:27:31.878Z,8.57
2018-03-16T17:30:00.934Z,9.95
2018-03-16T17:32:30.052Z,7.37
2018-03-16T17:34:59.150Z,13.98
2018-03-16T17:37:28.228Z,9.60
2018-03-16T17:39:57.298Z,12.23
2018-03-16T17:42:26.432Z,11.27
2018-03-16T17:44:55.503Z,10.55
2018-03-16T17:47:24.580Z,21.87
2018-03-16T17:49:54.524Z,10.93
2018-03-16T17:52:24.348Z,13.75
2018-03-16T17:54:53.418Z,8.77
2018-03-16T17:57:22.521Z,7.75
2018-03-16T17:59:51.622Z,7.15
2018-03-16T18:02:20.692Z,7.80
2018-03-16T18:04:49.765Z,14.35
2018-03-16T18:07:18.839Z,8.27
2018-03-16T18:09:47.906Z,10.18
2018-03-16T18:12:17.793Z,13.10
2018-03-16T18:14:46.861Z,7.62
2018-03-16T18:17:15.926Z,7.07
2018-03-16T18:19:45.068Z,7.22
2018-03-16T18:22:14.906Z,7.18
2018-03-16T18:24:43.986Z,11.32
2018-03-16T18:27:13.058Z,8.18
2018-03-16T18:29:42.190Z,6.65
2018-03-16T18:32:11.266Z,9.73
2018-03-16T18:34:40.334Z,7.45
2018-03-16T18:37:09.407Z,7.45
2018-03-16T18:39:38.516Z,6.07
2018-03-16T18:42:08.415Z,6.65
2018-03-16T18:44:37.564Z,5.18
2018-03-16T18:47:06.646Z,8.63
2018-03-16T18:49:35.720Z,9.93
2018-03-16T18:52:05.554Z,9.10
2018-03-16T18:54:34.630Z,7.15
2018-03-16T18:57:03.709Z,4.78
2018-03-16T18:59:32.842Z,6.20
2018-03-16T19:02:01.914Z,5.95
2018-03-16T19:04:31.009Z,6.60
2018-03-16T19:07:00.134Z,6.22
2018-03-16T19:09:30.074Z,5.50
2018-03-16T19:11:59.147Z,5.82
2018-03-16T19:14:29.006Z,5.50
2018-03-16T19:16:58.102Z,5.72
2018-03-16T19:19:27.216Z,8.40
2018-03-16T19:21:57.043Z,5.03
2018-03-16T19:24:26.123Z,8.18
2018-03-16T19:26:55.274Z,5.30
2018-03-16T19:29:24.350Z,5.57
2018-03-16T19:31:54.323Z,5.57
2018-03-16T19:34:23.422Z,4.43
2018-03-16T19:36:52.508Z,7.28
2018-03-16T19:39:22.347Z,8.25
2018-03-16T19:41:52.186Z,5.82
2018-03-16T19:44:21.322Z,4.90
2018-03-16T19:46:50.412Z,10.90
2018-03-16T19:49:19.491Z,9.80
2018-03-16T19:51:49.331Z,12.35
2018-03-16T19:54:18.452Z,4.87
2018-03-16T19:56:47.534Z,5.10
2018-03-16T19:59:17.379Z,5.20
2018-03-16T20:01:47.224Z,4.35
2018-03-16T20:04:16.300Z,6.30
2018-03-16T20:06:46.187Z,4.28
2018-03-16T20:09:15.286Z,9.90
2018-03-16T20:11:44.363Z,5.05
2018-03-16T20:14:14.234Z,5.45
2018-03-16T20:16:43.342Z,6.30
2018-03-16T20:19:12.421Z,6.87
2018-03-16T20:21:41.495Z,7.97
2018-03-16T20:24:10.626Z,8.70
2018-03-16T20:26:39.687Z,14.52
2018-03-16T20:29:08.767Z,6.87
2018-03-16T20:31:37.877Z,5.22
2018-03-16T20:34:07.168Z,4.28
2018-03-16T20:36:37.072Z,6.00
2018-03-16T20:39:06.153Z,7.47
2018-03-16T20:41:35.414Z,4.95
2018-03-16T20:44:04.675Z,5.05
2018-03-16T20:46:33.768Z,5.15
2018-03-16T20:49:02.923Z,4.18
2018-03-16T20:51:32.009Z,4.65
2018-03-16T20:54:01.091Z,3.60
2018-03-16T20:56:30.171Z,5.03
2018-03-16T20:59:00.165Z,4.20
2018-03-16T21:01:29.257Z,3.70
2018-03-16T21:03:58.341Z,4.95
2018-03-16T21:06:28.228Z,4.62
2018-03-16T21:08:57.322Z,4.65
2018-03-16T21:11:26.444Z,4.25
2018-03-16T21:13:55.540Z,3.60
2018-03-16T21:16:24.624Z,4.72
2018-03-16T21:18:53.712Z,12.10
2018-03-16T21:21:23.562Z,3.37
2018-03-16T21:23:52.642Z,3.22
2018-03-16T21:26:21.915Z,3.45
2018-03-16T21:28:50.996Z,3.30
2018-03-16T21:31:20.075Z,3.95
2018-03-16T21:33:49.188Z,3.45
2018-03-16T21:36:19.108Z,4.25
2018-03-16T21:38:48.243Z,3.22
2018-03-16T21:41:18.082Z,3.92
2018-03-16T21:43:47.919Z,3.55
2018-03-16T21:46:17.011Z,4.55
2018-03-16T21:48:46.841Z,2.83
2018-03-16T21:51:16.681Z,3.30
2018-03-16T21:53:45.794Z,3.10
2018-03-16T21:56:14.864Z,3.47
2018-03-16T21:58:43.942Z,3.30
2018-03-16T22:01:13.042Z,3.90
2018-03-16T22:03:42.122Z,3.75
2018-03-16T22:06:12.030Z,4.00
2018-03-16T22:08:41.105Z,4.00
2018-03-16T22:11:10.206Z,3.67
2018-03-16T22:13:39.282Z,3.42
2018-03-16T22:16:09.246Z,3.20
2018-03-16T22:18:38.322Z,4.90
2018-03-16T22:21:08.153Z,4.78
2018-03-16T22:23:38.090Z,3.50
2018-03-16T22:26:07.423Z,3.80
2018-03-16T22:28:36.628Z,3.50
2018-03-16T22:31:05.710Z,3.28
2018-03-16T22:33:35.583Z,5.78
2018-03-16T22:36:04.653Z,3.87
2018-03-16T22:38:34.494Z,3.25
2018-03-16T22:41:03.749Z,3.00
2018-03-16T22:43:32.821Z,4.82
2018-03-16T22:46:01.894Z,3.47
2018-03-16T22:48:30.967Z,4.20
2018-03-16T22:51:00.158Z,2.90
2018-03-16T22:53:29.235Z,3.97
2018-03-16T22:55:58.306Z,3.40
2018-03-16T22:58:27.378Z,5.40
2018-03-16T23:00:56.511Z,3.67
2018-03-16T23:03:25.609Z,3.28
2018-03-16T23:05:54.722Z,3.42
2018-03-16T23:08:23.841Z,3.22
2018-03-16T23:10:52.922Z,4.72
2018-03-16T23:13:22.766Z,5.90
2018-03-16T23:15:51.846Z,4.00
2018-03-16T23:18:21.687Z,4.95
2018-03-16T23:20:51.535Z,10.48
2018-03-16T23:23:20.644Z,4.62
2018-03-16T23:25:49.717Z,8.95
2018-03-16T23:28:18.794Z,6.97
2018-03-16T23:30:47.866Z,4.37
2018-03-16T23:33:16.946Z,5.78
2018-03-16T23:35:46.791Z,3.97
2018-03-16T23:38:15.866Z,4.32
2018-03-16T23:40:44.938Z,3.65
2018-03-16T23:43:14.081Z,5.20
2018-03-16T23:45:43.150Z,4.55
2018-03-16T23:48:12.235Z,5.62
2018-03-16T23:50:42.065Z,5.15
2018-03-16T23:53:11.914Z,3.80
2018-03-16T23:55:40.989Z,3.05
2018-03-16T23:58:10.133Z,5.03
